KGNT/GNT METAR and TAF weather

Enter ICAO airport designator
Station Type Date Time Source
KGNT METAR 2019/08/26 06:55 UTC NOAA

KGNT 260655Z AUTO 30007KT 10SM CLR 18/M02 A3018 RMK AO2 T01801022 403340062


Station Type Date Time Source
KGNT Decoded METAR 2019/08/26 06:55 UTC NOAA

Station name not available
Aug 26, 2019 - 02:55 AM EDT / 2019.08.26 0655 UTC
Wind: from the WNW (300 degrees) at 8 MPH (7 KT):0
Visibility: 10 mile(s):0
Sky conditions: clear
Temperature: 64.4 F (18.0 C)
Dew Point: 28.0 F (-2.2 C)
Relative Humidity: 25%
Pressure (altimeter): 30.18 in. Hg (1022 hPa)
ob: KGNT 260655Z AUTO 30007KT 10SM CLR 18/M02 A3018 RMK AO2 T01801022 403340062
cycle: 7

Station Type Date Time Source
KGNT TAF UTC NOAA

Error!

Example: see airport list